METAR Data
IDs: Format: Raw Decoded Include TAF

Data at: 1957 UTC 13 Aug 2020

METAR for:KHCR (Heber City Muni, UT, US)
Text:KHCR 131935Z AUTO 21009G15KT 10SM CLR 33/M05 A3015 RMK AO2
Temperature: 33.0°C ( 91°F)
Dewpoint: -5.0°C ( 23°F) [RH = 8%]
Pressure (altimeter):30.15 inches Hg (1021.1 mb)
Winds:from the SSW (210 degrees) at 10 MPH (9 knots; 4.6 m/s) gusting to 17 MPH (15 knots; 7.7 m/s)
Visibility:10 or more sm (16+ km)
Ceiling:at least 12,000 feet AGL
Clouds:sky clear below 12,000 feet AGL
QC Flag:automated observation with no human augmentation